Latest Weather Observations for Williamson

IDQ60801

Issued at 6:35 pm EST Friday 31 October 2014 (issued every 30 minutes, with the page automatically refreshed every 10 minutes)

About weather observations | Map of weather stations | Latest weather observations for QLD | Other Formats
Station Details ID: 033195 Name: WILLIAMSON Lat: -22.47 Lon: 150.18 Height: 27.6 m
Data from the previous 72 hours. | See also: Recent months at Williamson
Date/Time
EST
Temp
°C
App
Temp
°C
Dew
Point
Rel
Hum
%
Delta-T
°C
Wind Press
QNH
hPa
Press
MSL
hPa
Rain
since 9 am
mm
Dir
 
Spd
km/h
Gust
km/h
Spd
kts
Gust
kts
31/06:30pm 23.8 24.8 18.7 73 3.2 NNE 11 19 6 10 1014.8 1014.7 0.0
31/06:00pm 24.4 25.6 18.3 69 3.8 NNE 9 17 5 9 1014.7 1014.6 0.0
31/05:30pm 25.0 25.5 18.4 66 4.2 N 13 22 7 12 1014.3 1014.2 0.0
31/05:00pm 25.5 25.4 17.9 63 4.8 NNE 15 24 8 13 1013.9 1013.8 0.0
31/04:30pm 26.1 25.9 17.7 60 5.3 NNE 15 26 8 14 1013.5 1013.4 0.0
31/04:00pm 27.3 27.4 17.5 55 6.2 NNE 13 20 7 11 1013.2 1013.1 0.0
31/03:30pm 27.1 25.8 16.7 53 6.5 N 19 30 10 16 1013.3 1013.2 0.0
31/03:00pm 27.7 26.6 16.3 49 7.1 NNE 17 26 9 14 1013.6 1013.5 0.0
31/02:30pm 27.6 26.7 16.9 52 6.7 NNE 17 28 9 15 1013.9 1013.8 0.0
31/02:00pm 28.3 27.5 17.2 51 7.0 N 17 28 9 15 1014.0 1013.9 0.0
31/01:30pm 28.3 27.7 17.5 52 6.8 N 17 26 9 14 1014.1 1014.0 0.0
31/01:00pm 29.0 28.2 17.2 49 7.4 N 17 33 9 18 1014.6 1014.5 0.0
31/12:30pm 28.1 27.3 17.0 51 7.0 NNE 17 30 9 16 1015.0 1014.9 0.0
31/12:00pm 28.1 27.5 16.7 50 7.1 N 15 24 8 13 1015.4 1015.3 0.0
31/11:30am 27.8 26.7 16.4 50 7.1 N 17 28 9 15 1015.7 1015.6 0.0
31/11:00am 28.0 27.2 17.2 52 6.8 N 17 28 9 15 1016.0 1015.9 0.0
31/10:30am 27.7 27.1 16.6 50 6.9 NNE 15 22 8 12 1016.2 1016.1 0.0
31/10:00am 27.6 27.5 16.9 52 6.7 NNE 13 24 7 13 1016.4 1016.3 0.0
31/09:30am 26.8 27.8 17.8 57 5.7 ENE 9 15 5 8 1016.5 1016.4 0.0
31/09:00am 26.7 27.0 16.9 55 6.1 NNE 11 24 6 13 1016.5 1016.4 0.0
31/08:30am 25.4 25.3 17.8 62 4.8 NNE 15 22 8 12 1016.3 1016.2 0.0
31/08:00am 24.9 25.6 17.9 65 4.4 NNE 11 19 6 10 1016.6 1016.5 0.0
31/07:30am 24.7 25.5 18.2 67 4.1 NNE 11 19 6 10 1016.2 1016.1 0.0
31/07:00am 24.7 26.1 18.6 69 3.9 NE 9 19 5 10 1015.8 1015.7 0.0
31/06:30am 23.4 25.5 19.3 78 2.6 ENE 7 13 4 7 1015.6 1015.5 0.0
31/06:00am 20.4 23.6 18.9 91 0.9 CALM 0 0 0 0 1015.5 1015.4 0.0
31/05:30am 19.8 22.7 18.3 91 0.9 CALM 0 0 0 0 1015.3 1015.2 0.0
31/05:00am 20.2 23.2 18.5 90 1.1 CALM 0 0 0 0 1015.2 1015.1 0.0
31/04:30am 20.5 22.9 18.8 90 1.1 E 4 6 2 3 1014.6 1014.5 0.0
31/04:00am 20.5 23.8 19.2 92 0.8 CALM 0 0 0 0 1014.5 1014.4 0.0
31/03:30am 20.2 23.3 18.7 91 0.9 CALM 0 7 0 4 1014.3 1014.2 0.0
31/03:00am 20.7 24.0 19.0 90 1.1 CALM 0 0 0 0 1014.3 1014.2 0.0
31/02:30am 21.0 23.9 19.1 89 1.2 NE 2 6 1 3 1014.2 1014.1 0.0
31/02:00am 20.9 22.9 18.8 88 1.3 NNE 6 7 3 4 1014.2 1014.1 0.0
31/01:30am 21.4 23.4 18.8 85 1.6 ENE 6 9 3 5 1014.6 1014.5 0.0
31/01:00am 22.0 23.9 19.0 83 1.9 NE 7 11 4 6 1014.7 1014.6 0.0
31/12:30am 22.4 24.6 19.2 82 2.0 ENE 6 11 3 6 1015.1 1015.0 0.0
31/12:00am 23.1 25.2 19.3 79 2.4 NE 7 13 4 7 1015.5 1015.4 0.0
 
Date/Time
EST
Temp
°C
App
Temp
°C
Dew
Point
Rel
Hum
%
Delta-T
°C
Wind Press
QNH
hPa
Press
MSL
hPa
Rain
since 9 am
mm
Dir
 
Spd
km/h
Gust
km/h
Spd
kts
Gust
kts
30/11:30pm 23.5 25.4 19.8 80 2.4 NNE 9 15 5 8 1015.7 1015.6 0.0
30/11:00pm 23.3 25.3 19.9 81 2.2 NE 9 19 5 10 1015.1 1015.0 0.0
30/10:30pm 23.3 25.4 20.1 82 2.1 NNE 9 17 5 9 1015.1 1015.0 0.0
30/10:00pm 23.3 25.3 19.9 81 2.2 NE 9 13 5 7 1015.5 1015.4 0.0
30/09:30pm 23.3 25.6 19.5 79 2.4 NE 6 11 3 6 1015.5 1015.4 0.0
30/09:00pm 23.4 25.2 19.5 79 2.5 NE 9 17 5 9 1015.4 1015.3 0.0
30/08:30pm 23.5 25.3 19.6 79 2.5 NE 9 15 5 8 1015.3 1015.2 0.0
30/08:00pm 23.6 25.8 19.5 78 2.6 NNE 7 13 4 7 1014.9 1014.8 0.0
30/07:30pm 23.8 25.6 19.5 77 2.8 NNE 9 19 5 10 1014.7 1014.6 0.0
30/07:00pm 24.0 25.1 19.7 77 2.8 NNE 13 28 7 15 1014.4 1014.3 0.0
30/06:30pm 24.1 25.4 19.4 75 3.0 NNE 11 22 6 12 1014.3 1014.2 0.0
30/06:00pm 24.6 25.5 19.2 72 3.5 NNE 13 22 7 12 1014.1 1014.0 0.0
30/05:30pm 25.3 25.6 18.7 67 4.2 NNE 15 24 8 13 1013.6 1013.5 0.0
30/05:00pm 25.9 25.6 18.3 63 4.8 NNE 17 28 9 15 1013.2 1013.1 0.0
30/04:30pm 26.7 26.8 18.3 60 5.3 N 15 30 8 16 1012.8 1012.7 0.0
30/04:00pm 27.0 26.3 18.3 59 5.5 NNE 19 30 10 16 1012.5 1012.4 0.0
30/03:30pm 27.5 26.7 18.5 58 5.8 NNE 20 37 11 20 1012.7 1012.6 0.0
30/03:00pm 27.3 26.8 17.8 56 6.0 NNE 17 28 9 15 1012.9 1012.8 0.0
30/02:30pm 28.4 27.8 18.5 55 6.3 NNE 19 30 10 16 1013.2 1013.1 0.0
30/02:00pm 27.9 27.0 18.3 56 6.1 NNE 20 33 11 18 1013.4 1013.3 0.0
30/01:30pm 28.2 27.0 17.4 52 6.8 NNE 20 32 11 17 1013.5 1013.4 0.0
30/01:00pm 28.4 27.4 17.9 53 6.7 N 20 35 11 19 1013.8 1013.7 0.0
30/12:30pm 29.1 28.3 18.5 52 6.8 NNE 20 32 11 17 1014.1 1014.0 0.0
30/12:00pm 29.0 28.4 17.5 49 7.3 NNE 17 30 9 16 1014.5 1014.4 0.0
30/11:30am 28.3 27.2 17.2 51 7.0 N 19 30 10 16 1014.9 1014.8 0.0
30/11:00am 29.1 28.1 16.6 46 7.8 NNE 17 26 9 14 1015.3 1015.2 0.0
30/10:30am 27.8 27.1 17.3 52 6.6 NNE 17 28 9 15 1015.4 1015.3 0.0
30/10:00am 28.7 28.2 16.9 48 7.4 N 15 26 8 14 1015.6 1015.5 0.0
30/09:30am 27.7 26.5 16.0 49 7.2 NNE 17 30 9 16 1015.6 1015.5 0.0
30/09:00am 27.5 26.3 17.1 53 6.5 NE 19 24 10 13 1015.7 1015.6 0.0
30/08:30am 26.6 27.2 18.5 61 5.2 NNE 13 22 7 12 1015.9 1015.8 0.0
30/08:00am 26.1 26.5 19.0 65 4.5 NE 15 24 8 13 1016.0 1015.9 0.0
30/07:30am 25.2 26.2 18.6 67 4.2 NE 11 20 6 11 1016.3 1016.2 0.0
30/07:00am 24.0 25.4 19.5 76 2.9 NNE 11 19 6 10 1016.1 1016.0 0.0
30/06:30am 23.3 25.4 20.2 83 2.0 E 9 17 5 9 1016.1 1016.0 0.0
30/06:00am 21.3 24.2 19.9 92 0.9 E 4 7 2 4 1016.5 1016.4 0.0
30/05:30am 20.3 23.6 19.1 93 0.8 CALM 0 0 0 0 1016.3 1016.2 0.0
30/05:00am 20.7 24.2 19.5 93 0.8 CALM 0 0 0 0 1016.1 1016.0 0.0
30/04:30am 20.2 23.4 18.9 92 0.8 CALM 0 0 0 0 1015.1 1015.0 0.0
30/04:00am 20.6 23.8 18.9 90 1.1 CALM 0 0 0 0 1014.8 1014.7 0.0
30/03:30am 21.1 24.4 19.2 89 1.2 CALM 0 0 0 0 1014.3 1014.2 0.0
30/03:00am 21.5 24.5 19.2 87 1.5 NNE 2 6 1 3 1014.1 1014.0 0.0
30/02:30am 22.2 24.6 19.7 86 1.6 NNE 6 11 3 6 1013.6 1013.5 0.0
30/02:00am 22.4 24.5 20.1 87 1.5 NE 9 15 5 8 1013.2 1013.1 0.0
30/01:30am 22.2 24.4 19.7 86 1.6 NNE 7 15 4 8 1013.3 1013.2 0.0
30/01:00am 22.6 25.0 20.1 86 1.6 NNE 7 11 4 6 1013.6 1013.5 0.0
30/12:30am 22.9 25.0 20.2 85 1.7 N 9 17 5 9 1013.7 1013.6 0.0
30/12:00am 22.9 25.1 20.4 86 1.6 N 9 17 5 9 1013.9 1013.8 0.0
 
Date/Time
EST
Temp
°C
App
Temp
°C
Dew
Point
Rel
Hum
%
Delta-T
°C
Wind Press
QNH
hPa
Press
MSL
hPa
Rain
since 9 am
mm
Dir
 
Spd
km/h
Gust
km/h
Spd
kts
Gust
kts
29/11:30pm 22.7 25.4 20.6 88 1.4 N 7 13 4 7 1014.1 1014.0 0.0
29/11:00pm 22.4 25.0 20.5 89 1.2 NNE 7 9 4 5 1014.2 1014.1 0.0
29/10:30pm 22.4 25.5 20.3 88 1.4 N 4 7 2 4 1014.6 1014.5 0.0
29/10:00pm 22.7 25.9 20.4 87 1.5 N 4 9 2 5 1014.5 1014.4 0.0
29/09:30pm 22.8 25.5 20.3 86 1.6 N 6 9 3 5 1014.3 1014.2 0.0
29/09:00pm 23.2 25.8 20.5 85 1.8 N 7 13 4 7 1014.4 1014.3 0.0
29/08:30pm 23.5 25.8 20.6 84 1.9 N 9 17 5 9 1014.3 1014.2 0.0
29/08:00pm 23.8 25.9 20.9 84 1.9 N 11 17 6 9 1014.0 1013.9 0.0
29/07:30pm 24.1 25.9 20.4 80 2.4 NNE 11 20 6 11 1013.8 1013.7 0.0
29/07:00pm 24.2 26.5 20.7 81 2.3 NNE 9 17 5 9 1013.6 1013.5 0.0
29/06:30pm 24.3 26.2 20.6 80 2.4 NNE 11 19 6 10 1013.3 1013.2 0.0
29/06:00pm 24.4 26.7 20.7 80 2.4 NNE 9 26 5 14 1013.0 1012.9 0.0
29/05:30pm 24.9 26.0 20.4 76 2.9 NNE 15 24 8 13 1012.5 1012.4 0.0
29/05:00pm 25.8 26.1 20.4 72 3.5 NNE 19 28 10 15 1012.2 1012.1 0.0
29/04:30pm 26.4 25.9 19.0 63 4.8 NE 20 32 11 17 1011.9 1011.7 0.0
29/04:00pm 27.8 27.8 19.8 61 5.2 NNE 19 28 10 15 1011.7 1011.5 0.0
29/03:30pm 27.9 27.2 18.3 56 6.1 NNE 19 28 10 15 1011.7 1011.5 0.0
29/03:00pm 28.6 27.5 17.8 52 6.9 N 20 30 11 16 1011.7 1011.5 0.0
29/02:30pm 29.7 29.7 18.2 50 7.4 N 15 26 8 14 1012.1 1012.0 0.0
29/02:00pm 29.4 28.7 18.2 51 7.2 N 19 28 10 15 1012.2 1012.1 0.0
29/01:30pm 29.8 29.9 19.2 53 6.9 NNE 17 30 9 16 1012.3 1012.2 0.0
29/01:00pm 30.2 29.9 19.2 51 7.2 N 19 28 10 15 1012.4 1012.3 0.0
29/12:30pm 30.8 31.6 19.8 52 7.2 NE 15 24 8 13 1012.5 1012.4 0.0
29/12:00pm 31.3 32.4 19.6 49 7.7 NE 13 26 7 14 1012.8 1012.7 0.0
29/11:30am 31.2 32.2 19.5 49 7.7 N 13 19 7 10 1013.2 1013.1 0.0
29/11:00am 30.4 30.9 20.0 53 6.9 ENE 17 24 9 13 1013.5 1013.4 0.0
29/10:30am 30.6 32.0 19.6 51 7.2 ENE 11 20 6 11 1014.0 1013.9 0.0
29/10:00am 29.9 29.4 17.0 45 8.1 W 15 20 8 11 1014.3 1014.2 0.0
29/09:30am 29.0 30.3 17.5 49 7.3 N 7 17 4 9 1014.6 1014.5 0.0
29/09:00am 28.4 29.9 18.8 56 6.2 NW 9 19 5 10 1014.8 1014.7 0.0
29/08:30am 27.2 28.9 19.3 62 5.1 NW 9 19 5 10 1014.8 1014.7 0.0
29/08:00am 26.0 27.3 19.2 66 4.4 NNW 11 17 6 9 1014.7 1014.6 0.0
29/07:30am 25.5 26.8 19.4 69 3.9 NNW 11 17 6 9 1014.4 1014.3 0.0
29/07:00am 24.5 27.0 20.2 77 2.8 NNW 7 13 4 7 1014.5 1014.4 0.0
29/06:30am 23.3 26.7 20.2 83 2.0 NNE 2 7 1 4 1014.5 1014.4 0.0
29/06:00am 21.6 24.7 20.2 92 0.9 ENE 4 7 2 4 1014.1 1014.0 0.0
29/05:30am 21.4 25.0 19.7 90 1.1 CALM 0 2 0 1 1013.9 1013.8 0.0
29/05:00am 21.8 24.5 20.3 91 1.0 E 6 9 3 5 1013.3 1013.2 0.0
29/04:30am 22.5 25.6 20.2 87 1.5 ENE 4 9 2 5 1012.7 1012.6 0.0
29/04:00am 22.7 24.9 20.4 87 1.5 NNE 9 17 5 9 1012.1 1012.0 0.0
29/03:30am 22.8 25.4 20.5 87 1.5 NNE 7 13 4 7 1011.9 1011.7 0.0
29/03:00am 22.4 24.7 20.7 90 1.1 NNE 9 15 5 8 1011.6 1011.4 0.0
29/02:30am 21.9 24.1 20.5 92 0.9 NE 9 15 5 8 1011.7 1011.5 0.0
29/02:00am 21.1 23.5 19.7 92 0.9 NNE 6 11 3 6 1011.9 1011.7 0.0
29/01:30am 21.0 23.4 20.0 94 0.6 NE 7 13 4 7 1012.5 1012.4 0.0
29/01:00am 20.8 23.2 20.0 95 0.5 NNE 7 9 4 5 1013.6 1013.5 0.0
29/12:30am 21.3 23.6 19.9 92 0.9 N 7 9 4 5 1014.4 1014.3 0.0
29/12:00am 22.0 24.6 20.1 89 1.2 WSW 6 7 3 4 1015.0 1014.9 0.0
 
Date/Time
EST
Temp
°C
App
Temp
°C
Dew
Point
Rel
Hum
%
Delta-T
°C
Wind Press
QNH
hPa
Press
MSL
hPa
Rain
since 9 am
mm
Dir
 
Spd
km/h
Gust
km/h
Spd
kts
Gust
kts
28/11:30pm 21.7 24.7 20.0 90 1.1 SSW 4 9 2 5 1014.8 1014.7 0.0
28/11:00pm 22.3 24.8 20.2 88 1.4 NE 7 13 4 7 1014.4 1014.3 0.0
28/10:30pm 22.7 25.7 20.0 85 1.7 E 4 9 2 5 1014.9 1014.8 0.0
28/10:00pm 23.4 25.9 20.3 83 2.0 ESE 7 11 4 6 1014.7 1014.6 0.0
28/09:30pm 23.0 25.2 20.5 86 1.6 N 9 17 5 9 1013.8 1013.7 0.0
28/09:00pm 23.0 25.2 20.3 85 1.7 NNE 9 15 5 8 1013.7 1013.6 0.0
28/08:30pm 23.1 25.2 20.2 84 1.9 N 9 15 5 8 1013.4 1013.3 0.0
28/08:00pm 23.2 25.4 20.3 84 1.9 N 9 17 5 9 1013.3 1013.2 0.0
28/07:30pm 23.3 25.4 20.2 83 2.0 N 9 17 5 9 1012.9 1012.8 0.0
28/07:00pm 23.5 24.8 20.2 82 2.1 N 13 19 7 10 1012.5 1012.4 0.0

Other Formats:

Comma delimited format used in spreadsheet applications
http://www.bom.gov.au/fwo/IDQ60801/IDQ60801.95370.axf

JavaScript Object Notation format (JSON) in row-major order
http://www.bom.gov.au/fwo/IDQ60801/IDQ60801.95370.json